sensor_id;sensor_type;location;lat;lon;timestamp;pressure;altitude;pressure_sealevel;temperature;humidity
58072;BME280;60383;46.626;18.866;2022-08-21T00:00:45;99893.34;;;20.67;76.37
58072;BME280;60383;46.626;18.866;2022-08-21T00:03:11;99887.41;;;20.63;75.90
58072;BME280;60383;46.626;18.866;2022-08-21T00:05:45;99885.81;;;20.55;75.93
58072;BME280;60383;46.626;18.866;2022-08-21T00:08:11;99889.72;;;20.66;75.00
58072;BME280;60383;46.626;18.866;2022-08-21T00:10:37;99890.19;;;20.63;75.59
58072;BME280;60383;46.626;18.866;2022-08-21T00:13:04;99883.88;;;20.56;74.81
58072;BME280;60383;46.626;18.866;2022-08-21T00:15:32;99888.66;;;20.67;74.70
58072;BME280;60383;46.626;18.866;2022-08-21T00:17:58;99890.06;;;20.58;75.27
58072;BME280;60383;46.626;18.866;2022-08-21T00:20:25;99886.81;;;20.61;74.68
58072;BME280;60383;46.626;18.866;2022-08-21T00:22:51;99880.75;;;20.52;75.33
58072;BME280;60383;46.626;18.866;2022-08-21T00:25:18;99882.41;;;20.41;74.83
58072;BME280;60383;46.626;18.866;2022-08-21T00:27:43;99888.97;;;20.29;75.07
58072;BME280;60383;46.626;18.866;2022-08-21T00:30:13;99871.47;;;20.40;74.94
58072;BME280;60383;46.626;18.866;2022-08-21T00:32:40;99880.69;;;20.40;74.54
58072;BME280;60383;46.626;18.866;2022-08-21T00:35:10;99874.25;;;20.40;74.72
58072;BME280;60383;46.626;18.866;2022-08-21T00:37:38;99871.03;;;20.43;74.61
58072;BME280;60383;46.626;18.866;2022-08-21T00:40:07;99866.41;;;20.37;74.68
58072;BME280;60383;46.626;18.866;2022-08-21T00:42:33;99869.28;;;20.30;75.23
58072;BME280;60383;46.626;18.866;2022-08-21T00:44:59;99869.84;;;20.20;75.31
58072;BME280;60383;46.626;18.866;2022-08-21T00:47:25;99871.69;;;20.26;75.41
58072;BME280;60383;46.626;18.866;2022-08-21T00:49:50;99860.88;;;20.18;75.35
58072;BME280;60383;46.626;18.866;2022-08-21T00:52:23;99858.63;;;20.27;75.27
58072;BME280;60383;46.626;18.866;2022-08-21T00:54:50;99863.13;;;20.28;75.51
58072;BME280;60383;46.626;18.866;2022-08-21T00:57:24;99860.34;;;20.28;75.47
58072;BME280;60383;46.626;18.866;2022-08-21T00:59:51;99862.94;;;20.23;75.35
58072;BME280;60383;46.626;18.866;2022-08-21T01:02:20;99869.38;;;20.23;75.92
58072;BME280;60383;46.626;18.866;2022-08-21T01:04:47;99862.00;;;20.29;75.35
58072;BME280;60383;46.626;18.866;2022-08-21T01:07:13;99864.66;;;20.24;76.15
58072;BME280;60383;46.626;18.866;2022-08-21T01:09:39;99863.13;;;20.28;75.43
58072;BME280;60383;46.626;18.866;2022-08-21T01:12:06;99865.28;;;20.26;75.29
58072;BME280;60383;46.626;18.866;2022-08-21T01:14:32;99865.16;;;20.21;75.81
58072;BME280;60383;46.626;18.866;2022-08-21T01:16:59;99867.31;;;20.19;75.75
58072;BME280;60383;46.626;18.866;2022-08-21T01:19:26;99864.59;;;20.12;75.90
58072;BME280;60383;46.626;18.866;2022-08-21T01:21:52;99861.44;;;20.08;75.71
58072;BME280;60383;46.626;18.866;2022-08-21T01:24:19;99870.03;;;20.07;75.70
58072;BME280;60383;46.626;18.866;2022-08-21T01:26:45;99868.81;;;20.03;75.57
58072;BME280;60383;46.626;18.866;2022-08-21T01:31:49;99867.47;;;20.05;75.33
58072;BME280;60383;46.626;18.866;2022-08-21T01:34:15;99870.72;;;20.02;75.28
58072;BME280;60383;46.626;18.866;2022-08-21T01:36:42;99869.00;;;20.01;74.70
58072;BME280;60383;46.626;18.866;2022-08-21T01:39:08;99862.63;;;20.01;75.01
58072;BME280;60383;46.626;18.866;2022-08-21T01:41:34;99869.72;;;19.97;75.01
58072;BME280;60383;46.626;18.866;2022-08-21T01:44:01;99862.94;;;19.92;75.26
58072;BME280;60383;46.626;18.866;2022-08-21T01:46:27;99864.09;;;19.85;74.80
58072;BME280;60383;46.626;18.866;2022-08-21T01:48:52;99863.16;;;19.91;75.17
58072;BME280;60383;46.626;18.866;2022-08-21T01:51:18;99857.47;;;19.86;74.96
58072;BME280;60383;46.626;18.866;2022-08-21T01:53:44;99860.03;;;19.80;75.12
58072;BME280;60383;46.626;18.866;2022-08-21T01:56:12;99865.38;;;19.63;74.96
58072;BME280;60383;46.626;18.866;2022-08-21T01:58:40;99860.38;;;19.72;75.19
58072;BME280;60383;46.626;18.866;2022-08-21T02:01:06;99860.75;;;19.76;75.20
58072;BME280;60383;46.626;18.866;2022-08-21T02:03:32;99859.81;;;19.63;75.18
58072;BME280;60383;46.626;18.866;2022-08-21T02:05:57;99864.69;;;19.68;75.53
58072;BME280;60383;46.626;18.866;2022-08-21T02:08:23;99862.38;;;19.65;75.47
58072;BME280;60383;46.626;18.866;2022-08-21T02:10:49;99849.03;;;19.55;75.89
58072;BME280;60383;46.626;18.866;2022-08-21T02:13:15;99852.97;;;19.66;75.27
58072;BME280;60383;46.626;18.866;2022-08-21T02:15:40;99849.72;;;19.69;75.51
58072;BME280;60383;46.626;18.866;2022-08-21T02:18:06;99845.25;;;19.68;75.45
58072;BME280;60383;46.626;18.866;2022-08-21T02:20:38;99855.75;;;19.66;75.57
58072;BME280;60383;46.626;18.866;2022-08-21T02:23:04;99846.41;;;19.60;75.72
58072;BME280;60383;46.626;18.866;2022-08-21T02:25:31;99844.41;;;19.49;75.94
58072;BME280;60383;46.626;18.866;2022-08-21T02:27:57;99836.84;;;19.56;75.98
58072;BME280;60383;46.626;18.866;2022-08-21T02:30:27;99842.06;;;19.27;76.30
58072;BME280;60383;46.626;18.866;2022-08-21T02:32:52;99827.97;;;19.47;76.59
58072;BME280;60383;46.626;18.866;2022-08-21T02:35:18;99821.47;;;19.54;76.61
58072;BME280;60383;46.626;18.866;2022-08-21T02:37:53;99821.97;;;19.51;75.95
58072;BME280;60383;46.626;18.866;2022-08-21T02:40:23;99819.88;;;19.46;76.08
58072;BME280;60383;46.626;18.866;2022-08-21T02:42:49;99816.53;;;19.56;76.03
58072;BME280;60383;46.626;18.866;2022-08-21T02:45:16;99820.53;;;19.60;76.03
58072;BME280;60383;46.626;18.866;2022-08-21T02:47:54;99820.25;;;19.50;75.96
58072;BME280;60383;46.626;18.866;2022-08-21T02:50:43;99815.84;;;19.60;75.78
58072;BME280;60383;46.626;18.866;2022-08-21T02:53:09;99820.09;;;19.63;76.10
58072;BME280;60383;46.626;18.866;2022-08-21T02:55:36;99819.31;;;19.56;75.86
58072;BME280;60383;46.626;18.866;2022-08-21T02:58:03;99820.53;;;19.60;75.70
58072;BME280;60383;46.626;18.866;2022-08-21T03:00:30;99814.84;;;19.55;75.65
58072;BME280;60383;46.626;18.866;2022-08-21T03:02:56;99817.78;;;19.60;75.85
58072;BME280;60383;46.626;18.866;2022-08-21T03:05:22;99815.00;;;19.60;75.84
58072;BME280;60383;46.626;18.866;2022-08-21T03:07:48;99815.09;;;19.53;75.79
58072;BME280;60383;46.626;18.866;2022-08-21T03:10:14;99811.09;;;19.49;75.70
58072;BME280;60383;46.626;18.866;2022-08-21T03:12:40;99815.47;;;19.57;75.89
58072;BME280;60383;46.626;18.866;2022-08-21T03:15:08;99822.03;;;19.62;75.81
58072;BME280;60383;46.626;18.866;2022-08-21T03:17:35;99815.63;;;19.62;75.56
58072;BME280;60383;46.626;18.866;2022-08-21T03:20:00;99813.38;;;19.52;75.45
58072;BME280;60383;46.626;18.866;2022-08-21T03:22:26;99816.53;;;19.56;75.81
58072;BME280;60383;46.626;18.866;2022-08-21T03:24:52;99821.84;;;19.57;75.53
58072;BME280;60383;46.626;18.866;2022-08-21T03:27:18;99826.09;;;19.60;75.52
58072;BME280;60383;46.626;18.866;2022-08-21T03:29:44;99830.13;;;19.64;74.99
58072;BME280;60383;46.626;18.866;2022-08-21T03:32:09;99830.66;;;19.73;74.99
58072;BME280;60383;46.626;18.866;2022-08-21T03:34:36;99836.91;;;19.68;74.75
58072;BME280;60383;46.626;18.866;2022-08-21T03:37:03;99836.06;;;19.68;74.97
58072;BME280;60383;46.626;18.866;2022-08-21T03:39:29;99831.53;;;19.73;75.34
58072;BME280;60383;46.626;18.866;2022-08-21T03:41:55;99826.91;;;19.86;74.55
58072;BME280;60383;46.626;18.866;2022-08-21T03:44:20;99830.91;;;19.71;74.70
58072;BME280;60383;46.626;18.866;2022-08-21T03:46:46;99835.38;;;19.72;75.01
58072;BME280;60383;46.626;18.866;2022-08-21T03:49:11;99831.44;;;19.61;75.49
58072;BME280;60383;46.626;18.866;2022-08-21T03:51:37;99842.69;;;19.67;75.15
58072;BME280;60383;46.626;18.866;2022-08-21T03:54:03;99842.25;;;19.70;75.24
58072;BME280;60383;46.626;18.866;2022-08-21T03:56:29;99844.53;;;19.73;75.37
58072;BME280;60383;46.626;18.866;2022-08-21T03:58:54;99844.66;;;19.66;75.57
58072;BME280;60383;46.626;18.866;2022-08-21T04:01:20;99852.50;;;19.69;75.49
58072;BME280;60383;46.626;18.866;2022-08-21T04:03:46;99854.66;;;19.67;75.75
58072;BME280;60383;46.626;18.866;2022-08-21T04:06:12;99849.88;;;19.74;75.60
58072;BME280;60383;46.626;18.866;2022-08-21T04:08:37;99850.88;;;19.80;75.52
58072;BME280;60383;46.626;18.866;2022-08-21T04:11:03;99845.72;;;19.84;75.14
58072;BME280;60383;46.626;18.866;2022-08-21T04:13:30;99844.47;;;19.79;75.48
58072;BME280;60383;46.626;18.866;2022-08-21T04:15:55;99841.41;;;19.88;74.83
58072;BME280;60383;46.626;18.866;2022-08-21T04:18:21;99846.56;;;19.66;75.70
58072;BME280;60383;46.626;18.866;2022-08-21T04:20:50;99842.84;;;19.72;75.95
58072;BME280;60383;46.626;18.866;2022-08-21T04:23:18;99854.06;;;19.65;76.25
58072;BME280;60383;46.626;18.866;2022-08-21T04:25:43;99849.28;;;19.72;76.62
58072;BME280;60383;46.626;18.866;2022-08-21T04:28:09;99853.66;;;19.80;76.11
58072;BME280;60383;46.626;18.866;2022-08-21T04:30:34;99855.41;;;19.74;76.24
58072;BME280;60383;46.626;18.866;2022-08-21T04:33:00;99860.03;;;19.80;76.44
58072;BME280;60383;46.626;18.866;2022-08-21T04:35:27;99859.16;;;19.87;75.91
58072;BME280;60383;46.626;18.866;2022-08-21T04:37:53;99858.31;;;19.86;76.23
58072;BME280;60383;46.626;18.866;2022-08-21T04:40:20;99852.81;;;19.79;76.36
58072;BME280;60383;46.626;18.866;2022-08-21T04:42:54;99854.28;;;19.82;76.13
58072;BME280;60383;46.626;18.866;2022-08-21T04:45:41;99854.84;;;19.91;76.13
58072;BME280;60383;46.626;18.866;2022-08-21T04:48:10;99844.09;;;19.94;75.96
58072;BME280;60383;46.626;18.866;2022-08-21T04:50:47;99841.16;;;20.08;75.29
58072;BME280;60383;46.626;18.866;2022-08-21T04:53:19;99849.66;;;19.94;75.54
58072;BME280;60383;46.626;18.866;2022-08-21T04:55:46;99852.19;;;19.96;75.90
58072;BME280;60383;46.626;18.866;2022-08-21T04:58:15;99858.25;;;19.93;76.44
58072;BME280;60383;46.626;18.866;2022-08-21T05:00:43;99853.66;;;19.80;76.51
58072;BME280;60383;46.626;18.866;2022-08-21T05:03:12;99856.81;;;20.02;76.20
58072;BME280;60383;46.626;18.866;2022-08-21T05:05:39;99862.09;;;19.92;76.49
58072;BME280;60383;46.626;18.866;2022-08-21T05:08:06;99852.72;;;20.05;76.06
58072;BME280;60383;46.626;18.866;2022-08-21T05:10:33;99856.81;;;20.02;76.43
58072;BME280;60383;46.626;18.866;2022-08-21T05:12:59;99845.63;;;20.09;76.05
58072;BME280;60383;46.626;18.866;2022-08-21T05:15:25;99851.19;;;20.09;76.06
58072;BME280;60383;46.626;18.866;2022-08-21T05:17:51;99849.56;;;20.01;76.00
58072;BME280;60383;46.626;18.866;2022-08-21T05:20:16;99849.53;;;20.20;75.71
58072;BME280;60383;46.626;18.866;2022-08-21T05:22:42;99857.47;;;19.86;76.60
58072;BME280;60383;46.626;18.866;2022-08-21T05:25:08;99869.00;;;20.01;76.54
58072;BME280;60383;46.626;18.866;2022-08-21T05:27:34;99869.41;;;20.05;76.85
58072;BME280;60383;46.626;18.866;2022-08-21T05:30:00;99872.09;;;20.11;76.33
58072;BME280;60383;46.626;18.866;2022-08-21T05:32:26;99855.28;;;20.06;76.29
58072;BME280;60383;46.626;18.866;2022-08-21T05:34:52;99861.63;;;20.25;75.75
58072;BME280;60383;46.626;18.866;2022-08-21T05:37:18;99875.00;;;20.17;76.42
58072;BME280;60383;46.626;18.866;2022-08-21T05:39:44;99871.47;;;20.09;76.18
58072;BME280;60383;46.626;18.866;2022-08-21T05:42:10;99885.78;;;19.94;76.91
58072;BME280;60383;46.626;18.866;2022-08-21T05:44:35;99886.63;;;19.95;77.19
58072;BME280;60383;46.626;18.866;2022-08-21T05:47:05;99885.84;;;19.88;77.53
58072;BME280;60383;46.626;18.866;2022-08-21T05:49:32;99876.50;;;20.01;77.32
58072;BME280;60383;46.626;18.866;2022-08-21T05:51:57;99874.63;;;20.13;76.63
58072;BME280;60383;46.626;18.866;2022-08-21T05:54:23;99876.66;;;20.06;76.78
58072;BME280;60383;46.626;18.866;2022-08-21T05:56:48;99883.84;;;20.14;76.81
58072;BME280;60383;46.626;18.866;2022-08-21T05:59:14;99888.53;;;20.32;75.89
58072;BME280;60383;46.626;18.866;2022-08-21T06:01:39;99878.81;;;20.22;75.69
58072;BME280;60383;46.626;18.866;2022-08-21T06:04:06;99888.28;;;20.33;75.29
58072;BME280;60383;46.626;18.866;2022-08-21T06:06:32;99883.34;;;20.17;76.29
58072;BME280;60383;46.626;18.866;2022-08-21T06:08:57;99882.59;;;20.09;75.98
58072;BME280;60383;46.626;18.866;2022-08-21T06:11:23;99870.03;;;20.07;76.61
58072;BME280;60383;46.626;18.866;2022-08-21T06:13:48;99867.63;;;20.10;76.51
58072;BME280;60383;46.626;18.866;2022-08-21T06:16:16;99872.00;;;20.18;76.28
58072;BME280;60383;46.626;18.866;2022-08-21T06:18:43;99867.25;;;20.37;75.15
58072;BME280;60383;46.626;18.866;2022-08-21T06:21:09;99866.41;;;20.37;75.23
58072;BME280;60383;46.626;18.866;2022-08-21T06:23:36;99869.56;;;20.40;75.29
58072;BME280;60383;46.626;18.866;2022-08-21T06:26:04;99860.91;;;20.49;74.31
58072;BME280;60383;46.626;18.866;2022-08-21T06:28:31;99859.41;;;20.46;74.92
58072;BME280;60383;46.626;18.866;2022-08-21T06:30:57;99870.91;;;20.50;74.58
58072;BME280;60383;46.626;18.866;2022-08-21T06:33:23;99872.03;;;20.61;73.91
58072;BME280;60383;46.626;18.866;2022-08-21T06:35:49;99868.78;;;20.64;74.06
58072;BME280;60383;46.626;18.866;2022-08-21T06:38:14;99859.78;;;20.80;73.47
58072;BME280;60383;46.626;18.866;2022-08-21T06:40:40;99861.09;;;20.78;73.17
58072;BME280;60383;46.626;18.866;2022-08-21T06:43:11;99853.25;;;20.74;72.88
58072;BME280;60383;46.626;18.866;2022-08-21T06:45:37;99853.75;;;20.83;73.17
58072;BME280;60383;46.626;18.866;2022-08-21T06:48:03;99856.78;;;21.05;72.21
58072;BME280;60383;46.626;18.866;2022-08-21T06:50:30;99866.97;;;21.12;72.15
58072;BME280;60383;46.626;18.866;2022-08-21T06:53:01;99868.19;;;21.16;72.49
58072;BME280;60383;46.626;18.866;2022-08-21T06:55:27;99866.97;;;21.23;72.29
58072;BME280;60383;46.626;18.866;2022-08-21T06:57:52;99870.84;;;21.34;71.59
58072;BME280;60383;46.626;18.866;2022-08-21T07:00:18;99870.72;;;21.29;70.74
58072;BME280;60383;46.626;18.866;2022-08-21T07:02:44;99867.69;;;21.43;70.55
58072;BME280;60383;46.626;18.866;2022-08-21T07:05:09;99876.91;;;21.31;70.74
58072;BME280;60383;46.626;18.866;2022-08-21T07:07:35;99874.00;;;21.38;70.74
58072;BME280;60383;46.626;18.866;2022-08-21T07:10:00;99871.81;;;21.28;70.65
58072;BME280;60383;46.626;18.866;2022-08-21T07:12:26;99871.81;;;21.40;70.33
58072;BME280;60383;46.626;18.866;2022-08-21T07:14:52;99867.34;;;21.51;69.73
58072;BME280;60383;46.626;18.866;2022-08-21T07:17:17;99879.69;;;21.55;69.56
58072;BME280;60383;46.626;18.866;2022-08-21T07:19:43;99871.31;;;21.55;68.92
58072;BME280;60383;46.626;18.866;2022-08-21T07:22:08;99879.69;;;21.55;69.46
58072;BME280;60383;46.626;18.866;2022-08-21T07:24:34;99879.19;;;21.34;69.17
58072;BME280;60383;46.626;18.866;2022-08-21T07:26:59;99875.19;;;21.42;69.63
58072;BME280;60383;46.626;18.866;2022-08-21T07:29:25;99875.34;;;21.35;70.29
58072;BME280;60383;46.626;18.866;2022-08-21T07:31:51;99876.78;;;21.38;69.94
58072;BME280;60383;46.626;18.866;2022-08-21T07:34:16;99868.19;;;21.39;70.19
58072;BME280;60383;46.626;18.866;2022-08-21T07:36:42;99869.03;;;21.52;69.73
58072;BME280;60383;46.626;18.866;2022-08-21T07:39:08;99870.34;;;21.49;69.47
58072;BME280;60383;46.626;18.866;2022-08-21T07:41:33;99871.69;;;21.47;69.50
58072;BME280;60383;46.626;18.866;2022-08-21T07:43:59;99870.72;;;21.53;68.91
58072;BME280;60383;46.626;18.866;2022-08-21T07:46:25;99878.22;;;21.29;69.79
58072;BME280;60383;46.626;18.866;2022-08-21T07:48:52;99874.97;;;21.44;69.62
58072;BME280;60383;46.626;18.866;2022-08-21T07:51:19;99871.56;;;21.42;69.78
58072;BME280;60383;46.626;18.866;2022-08-21T07:53:51;99881.13;;;21.46;69.62
58072;BME280;60383;46.626;18.866;2022-08-21T07:56:17;99874.34;;;21.42;69.53
58072;BME280;60383;46.626;18.866;2022-08-21T07:58:43;99866.97;;;21.47;69.50
58072;BME280;60383;46.626;18.866;2022-08-21T08:01:08;99874.47;;;21.35;69.68
58072;BME280;60383;46.626;18.866;2022-08-21T08:03:34;99873.88;;;21.21;69.90
58072;BME280;60383;46.626;18.866;2022-08-21T08:06:00;99862.38;;;21.29;70.53
58072;BME280;60383;46.626;18.866;2022-08-21T08:08:25;99866.00;;;21.30;69.96
58072;BME280;60383;46.626;18.866;2022-08-21T08:10:51;99869.50;;;21.49;69.50
58072;BME280;60383;46.626;18.866;2022-08-21T08:13:18;99863.00;;;21.67;68.52
58072;BME280;60383;46.626;18.866;2022-08-21T08:15:44;99857.53;;;21.60;68.84
58072;BME280;60383;46.626;18.866;2022-08-21T08:18:09;99861.66;;;21.58;69.03
58072;BME280;60383;46.626;18.866;2022-08-21T08:20:35;99864.06;;;21.66;68.96
58072;BME280;60383;46.626;18.866;2022-08-21T08:23:00;99861.66;;;21.58;69.29
58072;BME280;60383;46.626;18.866;2022-08-21T08:25:27;99863.59;;;21.69;68.49
58072;BME280;60383;46.626;18.866;2022-08-21T08:27:52;99853.28;;;21.81;68.23
58072;BME280;60383;46.626;18.866;2022-08-21T08:30:19;99860.06;;;21.74;68.79
58072;BME280;60383;46.626;18.866;2022-08-21T08:32:46;99863.34;;;21.59;69.56
58072;BME280;60383;46.626;18.866;2022-08-21T08:35:12;99853.53;;;21.68;69.44
58072;BME280;60383;46.626;18.866;2022-08-21T08:37:38;99856.50;;;21.90;68.49
58072;BME280;60383;46.626;18.866;2022-08-21T08:40:18;99859.41;;;21.95;68.67
58072;BME280;60383;46.626;18.866;2022-08-21T08:42:47;99859.13;;;22.09;68.25
58072;BME280;60383;46.626;18.866;2022-08-21T08:45:16;99853.59;;;22.26;67.33
58072;BME280;60383;46.626;18.866;2022-08-21T08:47:46;99847.28;;;22.30;67.65
58072;BME280;60383;46.626;18.866;2022-08-21T08:50:24;99854.75;;;22.42;67.06
58072;BME280;60383;46.626;18.866;2022-08-21T08:52:59;99854.63;;;22.48;67.20
58072;BME280;60383;46.626;18.866;2022-08-21T08:55:36;99854.72;;;22.54;66.20
58072;BME280;60383;46.626;18.866;2022-08-21T08:58:02;99855.91;;;22.58;66.08
58072;BME280;60383;46.626;18.866;2022-08-21T09:00:30;99861.25;;;22.59;66.27
58072;BME280;60383;46.626;18.866;2022-08-21T09:03:01;99846.59;;;22.52;66.81
58072;BME280;60383;46.626;18.866;2022-08-21T09:05:39;99849.22;;;22.59;66.27
58072;BME280;60383;46.626;18.866;2022-08-21T09:11:01;99843.50;;;22.65;65.45
58072;BME280;60383;46.626;18.866;2022-08-21T09:24:39;99847.22;;;22.71;66.21
58072;BME280;60383;46.626;18.866;2022-08-21T09:27:13;99853.97;;;22.75;66.07
58072;BME280;60383;46.626;18.866;2022-08-21T09:29:43;99843.50;;;22.83;65.63
58072;BME280;60383;46.626;18.866;2022-08-21T09:35:12;99847.44;;;22.70;66.34
58072;BME280;60383;46.626;18.866;2022-08-21T09:45:38;99829.47;;;22.77;66.08
58072;BME280;60383;46.626;18.866;2022-08-21T09:48:15;99834.03;;;22.67;66.32
58072;BME280;60383;46.626;18.866;2022-08-21T09:50:44;99829.63;;;22.71;66.77
58072;BME280;60383;46.626;18.866;2022-08-21T09:53:20;99829.13;;;22.74;66.44
58072;BME280;60383;46.626;18.866;2022-08-21T09:56:16;99828.53;;;22.72;65.96
58072;BME280;60383;46.626;18.866;2022-08-21T09:59:00;99833.00;;;22.56;66.78
58072;BME280;60383;46.626;18.866;2022-08-21T10:01:26;99836.72;;;22.61;66.90
58072;BME280;60383;46.626;18.866;2022-08-21T10:04:03;99827.72;;;22.42;67.67
58072;BME280;60383;46.626;18.866;2022-08-21T10:06:29;99832.31;;;22.37;67.73
58072;BME280;60383;46.626;18.866;2022-08-21T10:09:15;99834.75;;;22.33;68.14
58072;BME280;60383;46.626;18.866;2022-08-21T10:11:49;99824.69;;;22.32;68.63
58072;BME280;60383;46.626;18.866;2022-08-21T10:17:01;99825.44;;;22.39;68.11
58072;BME280;60383;46.626;18.866;2022-08-21T10:20:02;99835.59;;;22.45;68.31
58072;BME280;60383;46.626;18.866;2022-08-21T10:25:08;99828.75;;;22.53;67.79
58072;BME280;60383;46.626;18.866;2022-08-21T10:27:52;99830.94;;;22.51;68.22
58072;BME280;60383;46.626;18.866;2022-08-21T10:36:16;99832.31;;;22.65;67.86
58072;BME280;60383;46.626;18.866;2022-08-21T10:46:56;99828.53;;;22.89;66.85
58072;BME280;60383;46.626;18.866;2022-08-21T10:55:55;99829.47;;;22.94;67.35
58072;BME280;60383;46.626;18.866;2022-08-21T10:58:36;99829.28;;;23.01;67.18
58072;BME280;60383;46.626;18.866;2022-08-21T11:01:25;99826.69;;;22.94;67.69
58072;BME280;60383;46.626;18.866;2022-08-21T11:06:40;99822.84;;;23.01;67.01
58072;BME280;60383;46.626;18.866;2022-08-21T11:09:14;99822.59;;;23.02;67.30
58072;BME280;60383;46.626;18.866;2022-08-21T11:12:05;99821.66;;;22.96;67.20
58072;BME280;60383;46.626;18.866;2022-08-21T11:14:56;99821.66;;;22.96;68.19
58072;BME280;60383;46.626;18.866;2022-08-21T11:17:36;99822.34;;;23.04;68.88
58072;BME280;60383;46.626;18.866;2022-08-21T11:20:38;99819.53;;;23.04;69.03
58072;BME280;60383;46.626;18.866;2022-08-21T11:23:17;99811.50;;;23.07;69.47
58072;BME280;60383;46.626;18.866;2022-08-21T11:25:45;99815.94;;;22.86;69.66
58072;BME280;60383;46.626;18.866;2022-08-21T11:42:57;99813.38;;;22.51;74.69
58072;BME280;60383;46.626;18.866;2022-08-21T11:45:49;99811.84;;;22.60;74.79
58072;BME280;60383;46.626;18.866;2022-08-21T11:48:37;99806.25;;;22.60;74.58
58072;BME280;60383;46.626;18.866;2022-08-21T11:51:14;99798.47;;;22.45;75.07
58072;BME280;60383;46.626;18.866;2022-08-21T11:56:31;99799.84;;;22.59;75.91
58072;BME280;60383;46.626;18.866;2022-08-21T11:59:02;99796.03;;;22.65;76.43
58072;BME280;60383;46.626;18.866;2022-08-21T12:01:38;99797.75;;;22.67;75.85
58072;BME280;60383;46.626;18.866;2022-08-21T12:04:32;99795.03;;;22.72;75.62
58072;BME280;60383;46.626;18.866;2022-08-21T12:07:28;99798.91;;;22.71;75.89
58072;BME280;60383;46.626;18.866;2022-08-21T12:09:57;99794.00;;;22.78;75.50
58072;BME280;60383;46.626;18.866;2022-08-21T12:12:30;99795.97;;;22.77;75.95
58072;BME280;60383;46.626;18.866;2022-08-21T12:18:00;99793.25;;;22.83;74.84
58072;BME280;60383;46.626;18.866;2022-08-21T12:28:24;99796.88;;;22.66;74.96
58072;BME280;60383;46.626;18.866;2022-08-21T12:30:51;99787.94;;;22.64;75.46
58072;BME280;60383;46.626;18.866;2022-08-21T12:33:32;99788.69;;;22.76;76.56
58072;BME280;60383;46.626;18.866;2022-08-21T12:36:10;99784.41;;;22.69;76.48
58072;BME280;60383;46.626;18.866;2022-08-21T12:38:48;99777.88;;;22.63;76.81
58072;BME280;60383;46.626;18.866;2022-08-21T12:41:19;99783.19;;;22.64;77.05
58072;BME280;60383;46.626;18.866;2022-08-21T12:43:57;99789.53;;;22.60;76.81
58072;BME280;60383;46.626;18.866;2022-08-21T12:46:45;99786.38;;;22.56;77.42
58072;BME280;60383;46.626;18.866;2022-08-21T12:49:28;99776.31;;;22.55;77.49
58072;BME280;60383;46.626;18.866;2022-08-21T12:52:12;99783.09;;;22.59;76.65
58072;BME280;60383;46.626;18.866;2022-08-21T12:54:43;99775.97;;;22.52;76.62
58072;BME280;60383;46.626;18.866;2022-08-21T12:57:20;99777.34;;;22.49;76.98
58072;BME280;60383;46.626;18.866;2022-08-21T12:59:45;99773.47;;;22.50;77.46
58072;BME280;60383;46.626;18.866;2022-08-21T13:02:19;99774.84;;;22.36;77.93
58072;BME280;60383;46.626;18.866;2022-08-21T13:04:47;99768.84;;;22.27;78.42
58072;BME280;60383;46.626;18.866;2022-08-21T13:07:19;99772.50;;;22.27;78.76
58072;BME280;60383;46.626;18.866;2022-08-21T13:12:25;99769.38;;;21.95;80.42
58072;BME280;60383;46.626;18.866;2022-08-21T13:14:56;99769.03;;;21.91;80.35
58072;BME280;60383;46.626;18.866;2022-08-21T13:17:24;99768.03;;;21.97;80.66
58072;BME280;60383;46.626;18.866;2022-08-21T13:19:55;99762.84;;;21.89;80.50
58072;BME280;60383;46.626;18.866;2022-08-21T13:22:20;99765.72;;;21.94;81.42
58072;BME280;60383;46.626;18.866;2022-08-21T13:24:47;99760.06;;;21.89;82.37
58072;BME280;60383;46.626;18.866;2022-08-21T13:27:19;99765.72;;;21.94;82.26
58072;BME280;60383;46.626;18.866;2022-08-21T13:29:45;99761.84;;;21.95;82.85
58072;BME280;60383;46.626;18.866;2022-08-21T13:32:21;99762.94;;;21.94;82.41
58072;BME280;60383;46.626;18.866;2022-08-21T13:34:49;99763.78;;;21.95;82.80
58072;BME280;60383;46.626;18.866;2022-08-21T13:37:15;99765.00;;;21.87;82.62
58072;BME280;60383;46.626;18.866;2022-08-21T13:39:40;99768.16;;;21.91;82.92
58072;BME280;60383;46.626;18.866;2022-08-21T13:42:10;99760.75;;;21.96;82.87
58072;BME280;60383;46.626;18.866;2022-08-21T13:44:45;99761.34;;;21.98;83.63
58072;BME280;60383;46.626;18.866;2022-08-21T13:47:14;99760.84;;;22.01;84.03
58072;BME280;60383;46.626;18.866;2022-08-21T13:49:43;99766.28;;;22.08;83.81
58072;BME280;60383;46.626;18.866;2022-08-21T13:52:28;99764.72;;;22.00;83.48
58072;BME280;60383;46.626;18.866;2022-08-21T13:55:08;99766.31;;;21.96;83.80
58072;BME280;60383;46.626;18.866;2022-08-21T13:57:34;99761.84;;;21.95;84.79
58072;BME280;60383;46.626;18.866;2022-08-21T14:02:41;99764.38;;;21.97;85.01
58072;BME280;60383;46.626;18.866;2022-08-21T14:05:15;99760.91;;;21.90;85.04
58072;BME280;60383;46.626;18.866;2022-08-21T14:07:42;99757.69;;;21.98;85.18
58072;BME280;60383;46.626;18.866;2022-08-21T14:10:19;99761.22;;;21.93;85.53
58072;BME280;60383;46.626;18.866;2022-08-21T14:12:54;99745.38;;;21.94;85.06
58072;BME280;60383;46.626;18.866;2022-08-21T14:15:26;99756.25;;;21.95;85.28
58072;BME280;60383;46.626;18.866;2022-08-21T14:17:54;99759.31;;;21.94;86.30
58072;BME280;60383;46.626;18.866;2022-08-21T14:20:34;99759.66;;;21.97;85.07
58072;BME280;60383;46.626;18.866;2022-08-21T14:23:00;99759.66;;;21.97;84.15
58072;BME280;60383;46.626;18.866;2022-08-21T14:27:54;99761.50;;;21.92;84.85
58072;BME280;60383;46.626;18.866;2022-08-21T14:30:34;99756.94;;;21.74;85.16
58072;BME280;60383;46.626;18.866;2022-08-21T14:33:02;99759.25;;;21.77;85.15